Russellville, South Carolina
Current Conditions -  °F | °C
As of 2:35 AM on Monday 24 Nov 2014 (Local Time) from KMKS Reporting Station
Broken Clouds Broken Clouds  
Wind Chill: 66°   Ceiling: 1000
Heat Index: 66°   Visibility: 10mi
Dew Point: 66°   Wind: 5mph
Humidity: 100%   Direction: 210°SSW
Pressure: 29.82"   Gusts: NA
Location:  33.4°N, 79.97°W
Report Text: KMKS 240735Z AUTO 21004KT 10SM BKN010 BKN013 BKN027 19/19 A2982 RMK AO2
Loading
Personal Weather Stations






























Interactive Weather Map New forecast layout! Learn more

10-Day Weather Forecast

Advertisements
Track Severe Weather on mobile